createdAt,value
2019-01-14T00:00:05.936Z,23.8
2019-01-14T00:02:04.667Z,23.8
2019-01-14T00:04:10.422Z,23.8
2019-01-14T00:06:10.061Z,23.8
2019-01-14T00:08:10.023Z,23.8
2019-01-14T00:10:05.229Z,23.8
2019-01-14T00:12:04.906Z,23.7
2019-01-14T00:14:05.109Z,23.7
2019-01-14T00:16:07.355Z,23.8
2019-01-14T00:18:05.066Z,23.8
2019-01-14T00:20:10.397Z,23.8
2019-01-14T00:22:05.065Z,23.8
2019-01-14T00:24:04.762Z,23.8
2019-01-14T00:26:05.571Z,23.8
2019-01-14T00:28:05.236Z,23.7
2019-01-14T00:30:04.893Z,23.7
2019-01-14T00:32:04.801Z,23.8
2019-01-14T00:34:05.352Z,23.7
2019-01-14T00:36:07.630Z,23.8
2019-01-14T00:38:10.108Z,23.8
2019-01-14T00:40:07.361Z,23.8
2019-01-14T00:42:05.030Z,23.8
2019-01-14T00:44:04.739Z,23.7
2019-01-14T00:46:08.018Z,23.7
2019-01-14T00:48:12.252Z,23.7
2019-01-14T00:50:04.993Z,23.8
2019-01-14T00:52:07.220Z,23.7
2019-01-14T00:54:05.496Z,23.7
2019-01-14T00:56:05.222Z,23.8
2019-01-14T00:58:04.982Z,23.8
2019-01-14T01:00:07.828Z,23.8
2019-01-14T01:02:05.641Z,23.8
2019-01-14T01:04:05.381Z,23.8
2019-01-14T01:06:05.612Z,23.8
2019-01-14T01:08:05.338Z,23.8
2019-01-14T01:10:05.106Z,23.8
2019-01-14T01:12:04.786Z,23.8
2019-01-14T01:14:04.995Z,23.8
2019-01-14T01:16:12.889Z,23.7
2019-01-14T01:18:04.782Z,23.7
2019-01-14T01:20:05.434Z,23.8
2019-01-14T01:22:05.097Z,23.8
2019-01-14T01:24:04.811Z,23.8
2019-01-14T01:26:04.711Z,23.7
2019-01-14T01:28:05.472Z,20.5
2019-01-14T01:30:05.228Z,23.8
2019-01-14T01:32:12.572Z,23.7
2019-01-14T01:34:07.766Z,23.7
2019-01-14T01:36:05.577Z,23.7
2019-01-14T01:38:05.247Z,23.7
2019-01-14T01:40:07.979Z,23.7
2019-01-14T01:42:04.657Z,23.7
2019-01-14T01:44:08.004Z,23.7
2019-01-14T01:46:12.957Z,23.7
2019-01-14T01:48:05.257Z,23.7
2019-01-14T01:50:04.933Z,23.7
2019-01-14T01:52:08.177Z,23.7
2019-01-14T01:54:04.969Z,23.7
2019-01-14T01:56:04.684Z,23.7
2019-01-14T01:58:10.426Z,23.8
2019-01-14T02:00:05.153Z,23.8
2019-01-14T02:02:04.821Z,23.7
2019-01-14T02:04:05.590Z,23.8
2019-01-14T02:06:05.362Z,23.8
2019-01-14T02:08:05.123Z,23.8
2019-01-14T02:10:05.303Z,23.8
2019-01-14T02:12:07.535Z,23.8
2019-01-14T02:14:05.213Z,23.7
2019-01-14T02:16:04.903Z,23.8
2019-01-14T02:18:05.430Z,23.8
2019-01-14T02:20:05.553Z,23.7
2019-01-14T02:22:05.249Z,23.7
2019-01-14T02:24:04.964Z,23.7
2019-01-14T02:26:10.011Z,23.7
2019-01-14T02:28:04.846Z,23.7
2019-01-14T02:30:05.515Z,23.7
2019-01-14T02:32:07.342Z,23.7
2019-01-14T02:34:05.134Z,23.7
2019-01-14T02:36:04.793Z,23.7
2019-01-14T02:38:05.462Z,23.7
2019-01-14T02:40:07.679Z,23.7
2019-01-14T02:42:04.932Z,23.7
2019-01-14T02:44:09.688Z,23.7
2019-01-14T02:46:05.358Z,23.7
2019-01-14T02:48:07.615Z,23.7
2019-01-14T02:50:05.380Z,23.7
2019-01-14T02:52:12.677Z,23.7
2019-01-14T02:54:05.364Z,23.7
2019-01-14T02:56:05.550Z,23.7
2019-01-14T02:58:05.235Z,23.7
2019-01-14T03:00:04.902Z,23.7
2019-01-14T03:02:05.627Z,23.7
2019-01-14T03:04:05.343Z,23.7
2019-01-14T03:06:04.997Z,23.7
2019-01-14T03:08:04.717Z,23.7
2019-01-14T03:10:04.933Z,23.7
2019-01-14T03:12:10.667Z,23.7
2019-01-14T03:14:07.872Z,23.7
2019-01-14T03:16:05.078Z,23.7
2019-01-14T03:18:10.037Z,23.7
2019-01-14T03:20:07.285Z,23.7
2019-01-14T03:22:05.561Z,23.7
2019-01-14T03:24:10.319Z,23.7
2019-01-14T03:26:07.613Z,23.7
2019-01-14T03:28:05.303Z,23.7
2019-01-14T03:30:05.513Z,23.7
2019-01-14T03:32:05.248Z,23.7
2019-01-14T03:34:05.477Z,23.7
2019-01-14T03:36:07.693Z,23.7
2019-01-14T03:38:04.954Z,23.6
2019-01-14T03:40:04.732Z,23.6
2019-01-14T03:42:05.457Z,23.7
2019-01-14T03:44:05.193Z,23.7
2019-01-14T03:46:05.431Z,23.7
2019-01-14T03:48:05.173Z,23.7
2019-01-14T03:50:04.846Z,23.7
2019-01-14T03:52:13.099Z,23.6
2019-01-14T03:54:07.304Z,23.6
2019-01-14T03:56:05.047Z,23.6
2019-01-14T03:58:04.782Z,23.6
2019-01-14T04:00:05.481Z,23.7
2019-01-14T04:02:05.227Z,23.7
2019-01-14T04:04:04.941Z,23.7
2019-01-14T04:06:04.693Z,23.7
2019-01-14T04:08:08.094Z,23.7
2019-01-14T04:10:04.850Z,23.7
2019-01-14T04:12:08.130Z,23.6
2019-01-14T04:14:04.817Z,23.7
2019-01-14T04:16:05.492Z,23.6
2019-01-14T04:18:07.863Z,23.7
2019-01-14T04:20:05.548Z,23.6
2019-01-14T04:22:05.242Z,23.6
2019-01-14T04:24:04.918Z,23.7
2019-01-14T04:26:07.176Z,23.6
2019-01-14T04:28:04.893Z,23.7
2019-01-14T04:30:08.249Z,23.6
2019-01-14T04:32:05.564Z,23.6
2019-01-14T04:34:04.755Z,23.7
2019-01-14T04:36:04.981Z,23.7
2019-01-14T04:38:05.453Z,23.7
2019-01-14T04:40:05.201Z,23.7
2019-01-14T04:42:05.560Z,23.6
2019-01-14T04:44:10.378Z,23.6
2019-01-14T04:46:05.078Z,23.6
2019-01-14T04:48:07.300Z,23.6
2019-01-14T04:50:05.056Z,23.7
2019-01-14T04:52:04.757Z,23.7
2019-01-14T04:54:05.554Z,23.7
2019-01-14T04:56:05.269Z,23.7
2019-01-14T04:58:05.138Z,23.7
2019-01-14T05:00:04.836Z,23.7
2019-01-14T05:02:05.556Z,23.8
2019-01-14T05:04:05.252Z,23.8
2019-01-14T05:06:07.972Z,23.8
2019-01-14T05:08:07.168Z,23.8
2019-01-14T05:10:04.855Z,23.8
2019-01-14T05:12:05.538Z,23.8
2019-01-14T05:14:05.239Z,23.8
2019-01-14T05:16:04.892Z,23.9
2019-01-14T05:18:05.342Z,23.9
2019-01-14T05:20:05.079Z,23.9
2019-01-14T05:22:04.887Z,23.8
2019-01-14T05:24:04.903Z,23.8
2019-01-14T05:26:08.124Z,23.8
2019-01-14T05:28:04.903Z,23.8
2019-01-14T05:30:05.265Z,23.8
2019-01-14T05:32:05.040Z,23.8
2019-01-14T05:34:08.459Z,23.8
2019-01-14T05:36:08.652Z,23.8
2019-01-14T05:38:04.733Z,23.8
2019-01-14T05:40:05.450Z,23.8
2019-01-14T05:42:07.678Z,23.8
2019-01-14T05:44:05.354Z,23.8
2019-01-14T05:46:05.007Z,23.8
2019-01-14T05:48:07.227Z,23.8
2019-01-14T05:50:04.891Z,23.8
2019-01-14T05:52:05.562Z,23.8
2019-01-14T05:54:04.758Z,23.8
2019-01-14T05:56:05.514Z,23.8
2019-01-14T05:58:05.190Z,23.8
2019-01-14T06:00:05.000Z,23.8
2019-01-14T06:02:04.679Z,23.8
2019-01-14T06:04:05.362Z,23.8
2019-01-14T06:06:05.094Z,23.8
2019-01-14T06:08:04.798Z,23.8
2019-01-14T06:10:05.086Z,23.8
2019-01-14T06:12:12.481Z,23.8
2019-01-14T06:14:05.223Z,23.8
2019-01-14T06:16:07.639Z,23.8
2019-01-14T06:18:05.493Z,23.8
2019-01-14T06:20:10.215Z,23.8
2019-01-14T06:22:04.877Z,23.8
2019-01-14T06:24:05.567Z,23.8
2019-01-14T06:26:04.742Z,23.8
2019-01-14T06:28:05.451Z,23.8
2019-01-14T06:30:07.219Z,23.8
2019-01-14T06:32:05.418Z,23.8
2019-01-14T06:34:05.163Z,23.8
2019-01-14T06:36:04.855Z,23.8
2019-01-14T06:38:05.560Z,23.8
2019-01-14T06:40:15.358Z,23.8
2019-01-14T06:42:07.459Z,23.8
2019-01-14T06:44:05.241Z,23.8
2019-01-14T06:46:04.987Z,23.8
2019-01-14T06:48:04.697Z,23.7
2019-01-14T06:50:10.435Z,23.7
2019-01-14T06:52:05.266Z,23.7
2019-01-14T06:54:04.956Z,23.7
2019-01-14T06:56:05.619Z,23.8
2019-01-14T06:58:04.817Z,23.8
2019-01-14T07:00:05.562Z,23.8
2019-01-14T07:02:05.318Z,23.8
2019-01-14T07:04:05.033Z,23.7
2019-01-14T07:06:04.727Z,23.8
2019-01-14T07:08:05.420Z,23.8
2019-01-14T07:10:10.226Z,23.8
2019-01-14T07:12:05.406Z,23.8
2019-01-14T07:14:05.375Z,23.7
2019-01-14T07:16:05.635Z,23.8
2019-01-14T07:18:05.549Z,23.8
2019-01-14T07:20:05.240Z,23.8
2019-01-14T07:22:05.420Z,23.8
2019-01-14T07:24:07.652Z,23.7
2019-01-14T07:26:05.379Z,23.7
2019-01-14T07:28:05.022Z,23.7
2019-01-14T07:30:04.719Z,23.7
2019-01-14T07:32:05.455Z,23.7
2019-01-14T07:34:07.740Z,23.7
2019-01-14T07:36:08.026Z,23.7
2019-01-14T07:38:06.801Z,23.6
2019-01-14T07:40:05.398Z,23.7
2019-01-14T07:42:05.148Z,23.7
2019-01-14T07:44:04.804Z,23.7
2019-01-14T07:46:05.511Z,23.8
2019-01-14T07:48:04.726Z,23.7
2019-01-14T07:50:08.106Z,23.7
2019-01-14T07:52:07.271Z,23.7
2019-01-14T07:54:04.933Z,23.7
2019-01-14T07:56:04.722Z,23.7
2019-01-14T07:58:05.506Z,23.7
2019-01-14T08:00:07.680Z,23.7
2019-01-14T08:02:07.377Z,23.8
2019-01-14T08:04:10.665Z,23.8
2019-01-14T08:06:07.867Z,23.8
2019-01-14T08:08:05.561Z,23.8
2019-01-14T08:10:07.982Z,23.8
2019-01-14T08:12:05.148Z,23.8
2019-01-14T08:14:04.918Z,23.8
2019-01-14T08:16:07.196Z,23.8
2019-01-14T08:18:10.136Z,23.8
2019-01-14T08:20:05.325Z,23.8
2019-01-14T08:22:04.964Z,23.8
2019-01-14T08:24:04.642Z,23.8
2019-01-14T08:26:04.909Z,23.8
2019-01-14T08:28:05.581Z,23.8
2019-01-14T08:30:05.276Z,23.8
2019-01-14T08:32:05.474Z,23.8
2019-01-14T08:34:04.742Z,23.8
2019-01-14T08:36:10.502Z,23.7
2019-01-14T08:38:05.291Z,23.7
2019-01-14T08:40:07.572Z,23.8
2019-01-14T08:42:05.298Z,23.7
2019-01-14T08:44:10.017Z,23.7
2019-01-14T08:46:07.232Z,23.8
2019-01-14T08:48:05.530Z,23.8
2019-01-14T08:50:05.219Z,23.8
2019-01-14T08:52:17.576Z,23.8
2019-01-14T08:54:07.796Z,23.8
2019-01-14T08:56:05.477Z,23.8
2019-01-14T08:58:05.233Z,23.7
2019-01-14T09:00:04.908Z,23.8
2019-01-14T09:02:07.133Z,23.8
2019-01-14T09:04:10.040Z,23.8
2019-01-14T09:06:05.250Z,23.8
2019-01-14T09:08:05.536Z,23.8
2019-01-14T09:10:05.211Z,23.8
2019-01-14T09:12:04.957Z,23.8
2019-01-14T09:14:04.634Z,23.8
2019-01-14T09:16:05.375Z,23.8
2019-01-14T09:18:05.280Z,23.8
2019-01-14T09:20:04.986Z,23.9
2019-01-14T09:22:05.274Z,23.8
2019-01-14T09:24:05.053Z,23.9
2019-01-14T09:26:09.754Z,23.8
2019-01-14T09:28:05.470Z,23.8
2019-01-14T09:30:07.934Z,23.8
2019-01-14T09:32:05.118Z,23.9
2019-01-14T09:34:07.344Z,23.9
2019-01-14T09:36:05.014Z,23.8
2019-01-14T09:38:05.246Z,23.9
2019-01-14T09:40:05.360Z,23.9
2019-01-14T09:42:10.750Z,23.8
2019-01-14T09:44:10.496Z,23.8
2019-01-14T09:46:05.416Z,23.9
2019-01-14T09:48:04.839Z,23.9
2019-01-14T09:50:08.065Z,23.8
2019-01-14T09:52:04.853Z,23.8
2019-01-14T09:54:05.524Z,23.9
2019-01-14T09:56:07.727Z,23.8
2019-01-14T09:58:05.395Z,23.8
2019-01-14T10:00:05.586Z,23.8
2019-01-14T10:02:05.252Z,23.8
2019-01-14T10:04:04.954Z,23.8
2019-01-14T10:06:04.697Z,23.8
2019-01-14T10:08:05.405Z,23.8
2019-01-14T10:10:05.237Z,23.8
2019-01-14T10:12:04.995Z,23.8
2019-01-14T10:14:07.705Z,23.8
2019-01-14T10:16:05.371Z,23.8
2019-01-14T10:18:05.470Z,23.8
2019-01-14T10:20:07.813Z,23.8
2019-01-14T10:22:05.918Z,23.8
2019-01-14T10:24:04.626Z,23.8
2019-01-14T10:26:10.429Z,23.8
2019-01-14T10:28:05.543Z,23.8
2019-01-14T10:30:05.266Z,23.8
2019-01-14T10:32:04.927Z,23.8
2019-01-14T10:34:04.617Z,23.8
2019-01-14T10:36:05.352Z,23.8
2019-01-14T10:38:05.105Z,23.8
2019-01-14T10:40:04.793Z,23.8
2019-01-14T10:42:05.485Z,23.8
2019-01-14T10:44:05.271Z,23.8
2019-01-14T10:46:05.470Z,23.8
2019-01-14T10:48:05.238Z,23.8
2019-01-14T10:50:04.861Z,23.8
2019-01-14T10:52:05.633Z,23.8
2019-01-14T10:54:05.289Z,23.8
2019-01-14T10:56:09.978Z,23.8
2019-01-14T10:58:09.688Z,23.9
2019-01-14T11:00:04.976Z,23.9
2019-01-14T11:02:04.683Z,23.9
2019-01-14T11:04:07.868Z,23.9
2019-01-14T11:06:05.587Z,23.8
2019-01-14T11:08:04.799Z,23.9
2019-01-14T11:10:05.479Z,23.9
2019-01-14T11:12:05.147Z,23.9
2019-01-14T11:14:05.363Z,23.9
2019-01-14T11:16:07.603Z,23.9
2019-01-14T11:18:05.040Z,23.9
2019-01-14T11:20:07.447Z,23.9
2019-01-14T11:22:04.632Z,23.9
2019-01-14T11:24:05.331Z,23.9
2019-01-14T11:26:05.574Z,23.9
2019-01-14T11:28:07.383Z,23.9
2019-01-14T11:30:05.100Z,23.9
2019-01-14T11:32:04.784Z,23.8
2019-01-14T11:34:05.466Z,23.9
2019-01-14T11:36:04.656Z,23.8
2019-01-14T11:38:04.885Z,23.8
2019-01-14T11:40:05.565Z,23.8
2019-01-14T11:42:04.780Z,23.8
2019-01-14T11:44:10.597Z,23.8
2019-01-14T11:46:05.582Z,23.8
2019-01-14T11:48:05.280Z,23.9
2019-01-14T11:50:04.930Z,23.9
2019-01-14T11:52:04.713Z,23.9
2019-01-14T11:54:05.423Z,23.9
2019-01-14T11:56:05.087Z,23.8
2019-01-14T11:58:12.331Z,23.8
2019-01-14T12:00:05.562Z,23.8
2019-01-14T12:02:10.337Z,23.8
2019-01-14T12:04:04.990Z,23.8
2019-01-14T12:06:04.772Z,23.8
2019-01-14T12:08:05.489Z,23.7
2019-01-14T12:10:05.207Z,23.8
2019-01-14T12:12:07.928Z,23.7
2019-01-14T12:14:04.609Z,23.7
2019-01-14T12:16:04.800Z,23.7
2019-01-14T12:18:04.632Z,23.7
2019-01-14T12:20:04.841Z,23.6
2019-01-14T12:22:05.522Z,23.6
2019-01-14T12:24:05.291Z,23.5
2019-01-14T12:26:05.556Z,23.5
2019-01-14T12:28:05.273Z,23.5
2019-01-14T12:30:05.509Z,23.4
2019-01-14T12:32:05.204Z,23.4
2019-01-14T12:34:04.871Z,23.4
2019-01-14T12:36:05.611Z,23.3
2019-01-14T12:38:05.264Z,23.3
2019-01-14T12:40:05.000Z,23.2
2019-01-14T12:42:12.289Z,23.2
2019-01-14T12:44:05.038Z,23.2
2019-01-14T12:46:10.380Z,23.1
2019-01-14T12:48:05.124Z,23.1
2019-01-14T12:50:05.338Z,23.1
2019-01-14T12:52:10.647Z,23
2019-01-14T12:54:05.339Z,23
2019-01-14T12:56:05.027Z,23
2019-01-14T12:58:04.722Z,23
2019-01-14T13:00:07.925Z,23
2019-01-14T13:02:10.262Z,23
2019-01-14T13:04:04.923Z,23
2019-01-14T13:06:05.599Z,23
2019-01-14T13:08:07.814Z,22.9
2019-01-14T13:10:05.444Z,22.9
2019-01-14T13:12:05.134Z,23
2019-01-14T13:14:04.886Z,22.9
2019-01-14T13:16:05.672Z,22.9
2019-01-14T13:18:05.740Z,22.9
2019-01-14T13:20:05.461Z,22.9
2019-01-14T13:22:04.737Z,22.9
2019-01-14T13:24:05.446Z,22.8
2019-01-14T13:26:05.112Z,22.9
2019-01-14T13:28:04.767Z,22.8
2019-01-14T13:30:05.426Z,22.8
2019-01-14T13:32:10.180Z,22.8
2019-01-14T13:34:04.854Z,22.8
2019-01-14T13:36:05.614Z,22.7
2019-01-14T13:38:05.258Z,22.8
2019-01-14T13:40:05.415Z,22.8
2019-01-14T13:42:04.607Z,22.9
2019-01-14T13:44:05.313Z,22.9
2019-01-14T13:46:08.190Z,23
2019-01-14T13:48:07.360Z,23.1
2019-01-14T13:50:07.764Z,23.1
2019-01-14T13:52:05.447Z,23
2019-01-14T13:54:05.176Z,23.1
2019-01-14T13:56:04.869Z,23.1
2019-01-14T13:58:05.496Z,23
2019-01-14T14:00:04.750Z,23.1
2019-01-14T14:02:05.401Z,23
2019-01-14T14:04:05.593Z,23
2019-01-14T14:06:04.911Z,23
2019-01-14T14:08:07.648Z,23
2019-01-14T14:10:05.380Z,23
2019-01-14T14:12:05.028Z,23
2019-01-14T14:14:04.730Z,23
2019-01-14T14:16:05.432Z,23
2019-01-14T14:18:04.852Z,23
2019-01-14T14:20:08.241Z,23
2019-01-14T14:22:11.622Z,23
2019-01-14T14:24:07.258Z,23
2019-01-14T14:26:05.027Z,23
2019-01-14T14:28:04.827Z,23
2019-01-14T14:30:05.511Z,23
2019-01-14T14:32:05.195Z,23
2019-01-14T14:34:05.388Z,23
2019-01-14T14:36:07.593Z,23
2019-01-14T14:38:05.274Z,23
2019-01-14T14:40:05.449Z,23
2019-01-14T14:42:07.659Z,23
2019-01-14T14:44:05.342Z,23
2019-01-14T14:46:08.077Z,22.9
2019-01-14T14:48:04.780Z,22.9
2019-01-14T14:50:07.833Z,22.9
2019-01-14T14:52:08.073Z,22.9
2019-01-14T14:54:04.745Z,22.9
2019-01-14T14:56:05.478Z,22.9
2019-01-14T14:58:05.142Z,22.9
2019-01-14T15:00:07.340Z,22.8
2019-01-14T15:02:05.156Z,22.8
2019-01-14T15:04:04.959Z,22.8
2019-01-14T15:06:04.637Z,22.8
2019-01-14T15:08:05.276Z,22.8
2019-01-14T15:10:05.534Z,22.8
2019-01-14T15:12:05.189Z,22.8
2019-01-14T15:14:04.843Z,22.8
2019-01-14T15:16:05.506Z,22.8
2019-01-14T15:18:05.438Z,22.8
2019-01-14T15:20:04.726Z,22.9
2019-01-14T15:22:08.022Z,22.9
2019-01-14T15:24:07.210Z,22.9
2019-01-14T15:26:04.848Z,22.9
2019-01-14T15:28:08.129Z,22.9
2019-01-14T15:30:04.871Z,22.9
2019-01-14T15:32:05.124Z,22.9
2019-01-14T15:34:04.912Z,22.9
2019-01-14T15:36:05.580Z,22.9
2019-01-14T15:38:05.376Z,22.9
2019-01-14T15:40:05.671Z,23
2019-01-14T15:42:05.360Z,22.9
2019-01-14T15:44:05.065Z,22.9
2019-01-14T15:46:12.346Z,22.9
2019-01-14T15:48:05.617Z,22.9
2019-01-14T15:50:04.868Z,22.9
2019-01-14T15:52:08.057Z,22.9
2019-01-14T15:54:12.542Z,22.8
2019-01-14T15:56:04.735Z,22.8
2019-01-14T15:58:05.421Z,22.9
2019-01-14T16:00:05.147Z,22.8
2019-01-14T16:02:04.833Z,22.8
2019-01-14T16:04:05.553Z,22.8
2019-01-14T16:06:05.265Z,22.8
2019-01-14T16:08:10.042Z,22.8
2019-01-14T16:10:10.469Z,22.8
2019-01-14T16:12:07.979Z,22.7
2019-01-14T16:14:09.728Z,22.7
2019-01-14T16:16:05.444Z,22.8
2019-01-14T16:18:05.307Z,22.7
2019-01-14T16:20:07.515Z,22.7
2019-01-14T16:22:07.327Z,22.7
2019-01-14T16:24:05.025Z,22.7
2019-01-14T16:26:07.780Z,22.7
2019-01-14T16:28:05.543Z,22.6
2019-01-14T16:30:05.283Z,22.7
2019-01-14T16:32:04.948Z,22.7
2019-01-14T16:34:05.218Z,22.7
2019-01-14T16:36:04.869Z,22.6
2019-01-14T16:38:07.597Z,22.6
2019-01-14T16:40:05.305Z,22.7
2019-01-14T16:42:10.024Z,22.6
2019-01-14T16:44:04.687Z,22.6
2019-01-14T16:46:05.349Z,22.6
2019-01-14T16:48:07.609Z,22.6
2019-01-14T16:50:05.272Z,22.6
2019-01-14T16:52:05.047Z,22.6
2019-01-14T16:54:04.924Z,22.7
2019-01-14T16:56:04.700Z,22.7
2019-01-14T16:58:05.417Z,22.7
2019-01-14T17:00:05.092Z,22.7
2019-01-14T17:02:07.331Z,22.7
2019-01-14T17:04:04.982Z,22.7
2019-01-14T17:06:04.632Z,22.7
2019-01-14T17:08:05.609Z,22.7
2019-01-14T17:10:05.540Z,22.7
2019-01-14T17:12:05.252Z,22.7
2019-01-14T17:14:04.988Z,22.7
2019-01-14T17:16:05.407Z,22.7
2019-01-14T17:18:05.296Z,22.7
2019-01-14T17:20:05.040Z,22.7
2019-01-14T17:22:05.356Z,22.7
2019-01-14T17:24:05.327Z,22.7
2019-01-14T17:26:07.699Z,22.7
2019-01-14T17:28:05.480Z,22.7
2019-01-14T17:30:05.260Z,22.7
2019-01-14T17:32:10.059Z,22.6
2019-01-14T17:34:05.023Z,22.7
2019-01-14T17:36:04.715Z,22.7
2019-01-14T17:38:07.496Z,22.6
2019-01-14T17:40:07.703Z,22.7
2019-01-14T17:42:05.424Z,22.6
2019-01-14T17:44:05.140Z,22.6
2019-01-14T17:46:05.530Z,22.6
2019-01-14T17:48:05.489Z,22.6
2019-01-14T17:50:05.179Z,22.6
2019-01-14T17:52:06.464Z,22.6
2019-01-14T17:54:05.154Z,22.6
2019-01-14T17:56:04.798Z,22.6
2019-01-14T17:58:10.548Z,22.6
2019-01-14T18:00:07.723Z,22.6
2019-01-14T18:02:05.057Z,22.6
2019-01-14T18:04:04.783Z,22.6
2019-01-14T18:06:07.961Z,22.6
2019-01-14T18:08:06.353Z,22.6
2019-01-14T18:10:04.626Z,22.6
2019-01-14T18:12:05.370Z,22.6
2019-01-14T18:14:05.127Z,22.6
2019-01-14T18:16:04.844Z,22.6
2019-01-14T18:18:04.773Z,22.6
2019-01-14T18:20:05.496Z,22.6
2019-01-14T18:22:05.461Z,22.6
2019-01-14T18:24:05.135Z,22.6
2019-01-14T18:26:04.860Z,22.6
2019-01-14T18:28:04.802Z,22.6
2019-01-14T18:30:07.588Z,22.5
2019-01-14T18:32:07.815Z,22.6
2019-01-14T18:34:05.469Z,22.6
2019-01-14T18:36:10.230Z,22.6
2019-01-14T18:38:07.533Z,22.6
2019-01-14T18:40:07.707Z,22.5
2019-01-14T18:42:05.359Z,22.5
2019-01-14T18:44:05.461Z,22.5
2019-01-14T18:46:05.116Z,22.5
2019-01-14T18:48:04.926Z,22.5
2019-01-14T18:50:08.104Z,22.5
2019-01-14T18:52:04.875Z,22.5
2019-01-14T18:54:05.652Z,22.5
2019-01-14T18:56:05.381Z,22.5
2019-01-14T18:58:07.632Z,22.5
2019-01-14T19:00:05.308Z,22.5
2019-01-14T19:02:04.995Z,22.5
2019-01-14T19:04:04.805Z,22.5
2019-01-14T19:06:05.483Z,22.5
2019-01-14T19:08:05.170Z,22.5
2019-01-14T19:10:04.900Z,22.5
2019-01-14T19:12:04.600Z,22.5
2019-01-14T19:14:05.255Z,22.5
2019-01-14T19:16:07.547Z,22.5
2019-01-14T19:18:05.424Z,22.5
2019-01-14T19:20:05.117Z,22.5
2019-01-14T19:22:07.300Z,22.5
2019-01-14T19:24:05.041Z,22.5
2019-01-14T19:26:07.446Z,22.5
2019-01-14T19:28:05.187Z,22.5
2019-01-14T19:30:07.768Z,22.5
2019-01-14T19:32:05.666Z,22.5
2019-01-14T19:34:10.485Z,22.5
2019-01-14T19:36:05.151Z,22.5
2019-01-14T19:38:04.924Z,22.5
2019-01-14T19:40:07.141Z,22.5
2019-01-14T19:42:10.123Z,22.5
2019-01-14T19:44:04.756Z,22.5
2019-01-14T19:46:05.497Z,22.5
2019-01-14T19:48:07.956Z,22.5
2019-01-14T19:50:04.634Z,22.5
2019-01-14T19:52:07.917Z,22.5
2019-01-14T19:54:05.581Z,22.5
2019-01-14T19:56:05.319Z,22.5
2019-01-14T19:58:07.522Z,22.6
2019-01-14T20:00:07.700Z,22.6
2019-01-14T20:02:05.394Z,22.6
2019-01-14T20:04:05.312Z,22.6
2019-01-14T20:06:05.245Z,22.6
2019-01-14T20:08:05.527Z,22.6
2019-01-14T20:10:04.712Z,22.6
2019-01-14T20:12:05.387Z,22.6
2019-01-14T20:14:07.561Z,22.6
2019-01-14T20:16:05.214Z,22.6
2019-01-14T20:18:04.606Z,22.6
2019-01-14T20:20:04.794Z,22.6
2019-01-14T20:22:05.488Z,22.6
2019-01-14T20:24:05.184Z,22.6
2019-01-14T20:26:10.410Z,22.7
2019-01-14T20:28:07.668Z,22.7
2019-01-14T20:30:05.354Z,22.7
2019-01-14T20:32:05.637Z,22.7
2019-01-14T20:34:05.298Z,22.7
2019-01-14T20:36:04.966Z,22.7
2019-01-14T20:38:04.630Z,22.8
2019-01-14T20:40:05.407Z,22.8
2019-01-14T20:42:05.082Z,22.8
2019-01-14T20:44:07.528Z,22.8
2019-01-14T20:46:05.216Z,22.8
2019-01-14T20:48:12.496Z,22.9
2019-01-14T20:50:05.243Z,22.9
2019-01-14T20:52:04.952Z,22.9
2019-01-14T20:54:04.642Z,22.9
2019-01-14T20:56:07.416Z,23
2019-01-14T20:58:10.192Z,23
2019-01-14T21:00:04.874Z,23
2019-01-14T21:02:07.664Z,23
2019-01-14T21:04:10.377Z,23
2019-01-14T21:06:05.526Z,23
2019-01-14T21:08:05.307Z,23
2019-01-14T21:10:07.550Z,23
2019-01-14T21:12:05.751Z,23
2019-01-14T21:14:04.993Z,23.1
2019-01-14T21:16:04.656Z,23.1
2019-01-14T21:18:05.608Z,23.1
2019-01-14T21:20:07.932Z,23.1
2019-01-14T21:22:15.331Z,23.1
2019-01-14T21:24:05.004Z,23.1
2019-01-14T21:26:07.461Z,23.1
2019-01-14T21:28:04.818Z,23.1
2019-01-14T21:30:04.938Z,23.1
2019-01-14T21:32:04.791Z,23.2
2019-01-14T21:34:09.797Z,23.1
2019-01-14T21:36:05.492Z,23.2
2019-01-14T21:38:12.603Z,23.2
2019-01-14T21:40:04.682Z,23.2
2019-01-14T21:42:10.949Z,23.2
2019-01-14T21:44:05.100Z,23.2
2019-01-14T21:46:09.653Z,23.2
2019-01-14T21:48:17.046Z,23.2
2019-01-14T21:50:07.650Z,23.2
2019-01-14T21:52:05.544Z,23.2
2019-01-14T21:54:07.760Z,23.3
2019-01-14T21:56:12.488Z,23.3
2019-01-14T21:58:05.167Z,23.3
2019-01-14T22:00:04.811Z,23.3
2019-01-14T22:02:04.735Z,23.3
2019-01-14T22:04:07.450Z,23.3
2019-01-14T22:06:04.798Z,23.4
2019-01-14T22:08:06.533Z,23.4
2019-01-14T22:10:07.443Z,23.4
2019-01-14T22:12:07.886Z,23.4
2019-01-14T22:14:05.657Z,23.4
2019-01-14T22:16:05.301Z,23.4
2019-01-14T22:18:04.922Z,23.4
2019-01-14T22:20:04.966Z,23.4
2019-01-14T22:22:04.700Z,23.4
2019-01-14T22:24:05.413Z,23.4
2019-01-14T22:26:05.327Z,23.4
2019-01-14T22:28:04.998Z,23.4
2019-01-14T22:30:05.226Z,23.4
2019-01-14T22:32:07.032Z,23.4
2019-01-14T22:34:09.528Z,23.4
2019-01-14T22:36:05.713Z,23.4
2019-01-14T22:38:04.696Z,23.4
2019-01-14T22:40:04.665Z,23.4
2019-01-14T22:42:12.565Z,23.4
2019-01-14T22:44:05.450Z,23.4
2019-01-14T22:46:09.769Z,23.4
2019-01-14T22:48:04.952Z,23.4
2019-01-14T22:50:07.932Z,23.4
2019-01-14T22:52:05.721Z,23.4
2019-01-14T22:54:16.446Z,23.4
2019-01-14T22:56:08.099Z,23.4
2019-01-14T22:58:05.389Z,23.4
2019-01-14T23:00:05.225Z,23.4
2019-01-14T23:02:04.657Z,23.4
2019-01-14T23:04:05.290Z,23.4
2019-01-14T23:06:05.240Z,23.4
2019-01-14T23:08:05.855Z,23.4
2019-01-14T23:10:05.526Z,23.4
2019-01-14T23:12:07.120Z,23.4
2019-01-14T23:14:04.715Z,23.4
2019-01-14T23:16:07.997Z,23.4
2019-01-14T23:18:05.144Z,23.4
2019-01-14T23:20:05.560Z,23.4
2019-01-14T23:22:07.486Z,23.4
2019-01-14T23:24:04.917Z,23.4
2019-01-14T23:26:04.888Z,23.4
2019-01-14T23:28:09.893Z,23.4
2019-01-14T23:30:05.550Z,23.4
2019-01-14T23:32:05.288Z,23.4
2019-01-14T23:34:04.846Z,23.4
2019-01-14T23:36:05.556Z,23.4
2019-01-14T23:38:05.355Z,23.4
2019-01-14T23:40:05.484Z,23.4
2019-01-14T23:42:05.215Z,23.4
2019-01-14T23:44:05.152Z,23.4
2019-01-14T23:46:05.232Z,23.4
2019-01-14T23:48:06.110Z,23.4
2019-01-14T23:50:05.797Z,23.4
2019-01-14T23:52:04.725Z,23.4
2019-01-14T23:54:05.152Z,23.4
2019-01-14T23:56:22.926Z,23.4
2019-01-14T23:58:05.124Z,23.4
